createdAt,value
2022-08-17T00:00:43.353Z,82.49
2022-08-17T00:01:27.235Z,82.79
2022-08-17T00:02:26.964Z,83.13
2022-08-17T00:03:25.569Z,83.03
2022-08-17T00:04:25.695Z,83.43
2022-08-17T00:05:25.821Z,83.73
2022-08-17T00:06:25.957Z,83.73
2022-08-17T00:07:26.100Z,83.93
2022-08-17T00:08:26.248Z,84.13
2022-08-17T00:09:26.337Z,84.03
2022-08-17T00:10:26.485Z,84.47
2022-08-17T00:11:26.605Z,84.57
2022-08-17T00:12:42.216Z,84.67
2022-08-17T00:13:27.857Z,84.88
2022-08-17T00:14:26.998Z,84.88
2022-08-17T00:15:27.114Z,84.97
2022-08-17T00:16:52.599Z,84.88
2022-08-17T00:17:28.358Z,85.17
2022-08-17T00:19:02.213Z,85.08
2022-08-17T00:19:28.598Z,85.27
2022-08-17T00:20:30.496Z,85.17
2022-08-17T00:21:27.921Z,85.33
2022-08-17T00:22:34.964Z,85.44
2022-08-17T00:23:29.209Z,84.97
2022-08-17T00:24:28.288Z,85.17
2022-08-17T00:25:28.369Z,85.27
2022-08-17T00:26:44.228Z,85.17
2022-08-17T00:27:29.606Z,85.27
2022-08-17T00:28:28.729Z,85.38
2022-08-17T00:29:28.849Z,85.68
2022-08-17T00:30:29.008Z,85.88
2022-08-17T00:31:29.169Z,85.97
2022-08-17T00:33:12.189Z,86.02
2022-08-17T00:33:30.945Z,86.22
2022-08-17T00:34:29.555Z,86.32
2022-08-17T00:35:29.728Z,86.42
2022-08-17T00:36:29.869Z,86.32
2022-08-17T00:37:30.096Z,86.52
2022-08-17T00:38:30.148Z,86.52
2022-08-17T00:39:30.420Z,86.42
2022-08-17T00:40:40.804Z,86.62
2022-08-17T00:41:31.607Z,86.82
2022-08-17T00:42:31.370Z,86.62
2022-08-17T00:43:30.945Z,86.92
2022-08-17T00:44:31.269Z,87.12
2022-08-17T00:45:31.129Z,87.22
2022-08-17T00:46:31.270Z,87.32
2022-08-17T00:47:31.397Z,87.22
2022-08-17T00:48:31.539Z,87.42
2022-08-17T00:49:31.633Z,87.32
2022-08-17T00:50:31.776Z,87.42
2022-08-17T00:51:31.930Z,87.22
2022-08-17T00:52:32.055Z,87.42
2022-08-17T00:53:32.156Z,87.52
2022-08-17T00:54:32.343Z,87.52
2022-08-17T00:55:32.429Z,87.22
2022-08-17T00:56:32.566Z,87.62
2022-08-17T00:57:32.693Z,87.82
2022-08-17T00:58:36.062Z,88.12
2022-08-17T00:59:32.958Z,88.12
2022-08-17T01:00:33.128Z,88.12
2022-08-17T01:01:33.970Z,88.32
2022-08-17T01:02:40.412Z,88.53
2022-08-17T01:03:34.547Z,88.79
2022-08-17T01:04:33.669Z,88.59
2022-08-17T01:05:33.807Z,89.18
2022-08-17T01:06:33.947Z,89.18
2022-08-17T01:07:34.094Z,88.93
2022-08-17T01:08:34.237Z,89.23
2022-08-17T01:09:34.380Z,89.03
2022-08-17T01:10:57.423Z,88.63
2022-08-17T01:11:35.684Z,88.12
2022-08-17T01:12:36.392Z,88.12
2022-08-17T01:13:40.350Z,87.73
2022-08-17T01:14:36.110Z,87.93
2022-08-17T01:15:35.216Z,88.02
2022-08-17T01:16:35.318Z,88.02
2022-08-17T01:17:35.439Z,88.12
2022-08-17T01:18:35.638Z,88.37
2022-08-17T01:19:35.666Z,88.47
2022-08-17T01:20:48.304Z,88.57
2022-08-17T01:21:36.916Z,88.17
2022-08-17T01:22:36.067Z,87.96
2022-08-17T01:23:36.139Z,88.17
2022-08-17T01:24:36.291Z,88.47
2022-08-17T01:25:36.400Z,88.37
2022-08-17T01:26:36.541Z,88.67
2022-08-17T01:27:36.695Z,88.61
2022-08-17T01:28:53.643Z,88.97
2022-08-17T01:29:38.060Z,88.97
2022-08-17T01:30:57.830Z,89.11
2022-08-17T01:31:38.320Z,89.31
2022-08-17T01:32:37.450Z,89.51
2022-08-17T01:33:37.621Z,89.62
2022-08-17T01:34:43.882Z,89.92
2022-08-17T01:35:38.819Z,90.06
2022-08-17T01:36:37.947Z,90.16
2022-08-17T01:37:38.081Z,90.46
2022-08-17T01:38:40.177Z,90.66
2022-08-17T01:39:38.513Z,90.86
2022-08-17T01:40:38.497Z,90.56
2022-08-17T01:41:38.628Z,90.66
2022-08-17T01:42:38.763Z,91.17
2022-08-17T01:43:38.877Z,91.17
2022-08-17T01:44:38.996Z,91.27
2022-08-17T01:45:39.162Z,91.47
2022-08-17T01:46:39.269Z,91.67
2022-08-17T01:47:39.396Z,91.87
2022-08-17T01:48:39.609Z,91.91
2022-08-17T01:49:39.698Z,91.82
2022-08-17T01:50:40.750Z,91.61
2022-08-17T01:51:39.961Z,92.02
2022-08-17T01:52:40.092Z,92.02
2022-08-17T01:53:40.281Z,92.11
2022-08-17T01:54:42.342Z,92.32
2022-08-17T01:55:40.466Z,92.11
2022-08-17T01:56:40.598Z,92.52
2022-08-17T01:57:40.708Z,92.52
2022-08-17T01:58:40.838Z,92.66
2022-08-17T01:59:40.998Z,92.96
2022-08-17T02:00:46.908Z,93.16
2022-08-17T02:01:42.298Z,93.37
2022-08-17T02:02:41.391Z,93.37
2022-08-17T02:03:41.545Z,93.46
2022-08-17T02:04:42.671Z,93.16
2022-08-17T02:05:41.790Z,93.27
2022-08-17T02:06:44.861Z,93.16
2022-08-17T02:07:56.015Z,92.86
2022-08-17T02:09:02.534Z,93.16
2022-08-17T02:09:43.339Z,93.46
2022-08-17T02:10:46.763Z,93.77
2022-08-17T02:11:42.636Z,93.66
2022-08-17T02:12:42.768Z,93.57
2022-08-17T02:13:42.999Z,93.71
2022-08-17T02:14:43.059Z,94.01
2022-08-17T02:15:43.221Z,94.21
2022-08-17T02:16:43.360Z,94.32
2022-08-17T02:17:43.455Z,94.21
2022-08-17T02:18:43.588Z,94.21
2022-08-17T02:19:44.452Z,94.42
2022-08-17T02:20:44.158Z,94.82
2022-08-17T02:21:44.057Z,94.92
2022-08-17T02:22:44.138Z,95.07
2022-08-17T02:23:44.299Z,95.27
2022-08-17T02:25:00.591Z,94.96
2022-08-17T02:25:45.630Z,94.96
2022-08-17T02:26:44.721Z,94.67
2022-08-17T02:27:44.799Z,94.76
2022-08-17T02:28:44.953Z,94.96
2022-08-17T02:29:45.855Z,94.56
2022-08-17T02:31:01.946Z,94.67
2022-08-17T02:31:46.414Z,94.56
2022-08-17T02:32:45.544Z,94.82
2022-08-17T02:33:45.690Z,94.72
2022-08-17T02:34:46.860Z,94.42
2022-08-17T02:35:46.000Z,94.32
2022-08-17T02:36:46.188Z,94.21
2022-08-17T02:37:46.281Z,94.12
2022-08-17T02:38:47.396Z,94.36
2022-08-17T02:39:46.610Z,94.67
2022-08-17T02:40:46.727Z,94.87
2022-08-17T02:41:46.820Z,95.07
2022-08-17T02:42:46.957Z,95.27
2022-08-17T02:43:47.040Z,95.37
2022-08-17T02:44:47.179Z,95.37
2022-08-17T02:45:47.289Z,95.67
2022-08-17T02:46:47.430Z,95.57
2022-08-17T02:47:47.557Z,95.67
2022-08-17T02:48:47.687Z,95.77
2022-08-17T02:49:54.169Z,95.97
2022-08-17T02:50:48.970Z,96.58
2022-08-17T02:51:48.097Z,96.98
2022-08-17T02:52:59.603Z,97.38
2022-08-17T02:53:49.360Z,97.28
2022-08-17T02:54:48.519Z,97.33
2022-08-17T02:55:48.711Z,96.83
2022-08-17T02:56:48.876Z,96.73
2022-08-17T02:57:48.918Z,96.83
2022-08-17T02:58:49.019Z,97.24
2022-08-17T02:59:49.274Z,96.93
2022-08-17T03:00:49.277Z,97.09
2022-08-17T03:01:49.477Z,96.48
2022-08-17T03:02:49.764Z,96.19
2022-08-17T03:03:49.710Z,96.08
2022-08-17T03:04:49.851Z,96.08
2022-08-17T03:05:49.953Z,95.78
2022-08-17T03:06:50.112Z,95.73
2022-08-17T03:07:50.241Z,95.43
2022-08-17T03:08:50.390Z,95.43
2022-08-17T03:09:50.560Z,95.33
2022-08-17T03:10:50.689Z,95.03
2022-08-17T03:11:50.858Z,94.83
2022-08-17T03:12:52.015Z,94.59
2022-08-17T03:13:50.991Z,94.28
2022-08-17T03:14:51.146Z,94.28
2022-08-17T03:15:51.267Z,94.18
2022-08-17T03:16:51.378Z,94.18
2022-08-17T03:17:51.499Z,94.18
2022-08-17T03:18:53.626Z,93.98
2022-08-17T03:19:51.844Z,93.98
2022-08-17T03:20:51.890Z,94.23
2022-08-17T03:21:54.832Z,94.23
2022-08-17T03:22:53.663Z,94.43
2022-08-17T03:23:54.399Z,94.83
2022-08-17T03:24:52.401Z,94.93
2022-08-17T03:25:53.751Z,94.93
2022-08-17T03:26:53.040Z,95.18
2022-08-17T03:27:52.749Z,95.03
2022-08-17T03:28:52.903Z,94.98
2022-08-17T03:29:52.996Z,94.98
2022-08-17T03:30:53.140Z,95.18
2022-08-17T03:31:53.238Z,95.48
2022-08-17T03:32:53.401Z,95.58
2022-08-17T03:33:53.524Z,95.58
2022-08-17T03:34:53.669Z,95.68
2022-08-17T03:35:53.770Z,95.88
2022-08-17T03:36:53.922Z,95.88
2022-08-17T03:38:00.890Z,95.78
2022-08-17T03:38:55.190Z,95.78
2022-08-17T03:39:54.378Z,95.78
2022-08-17T03:40:59.010Z,95.78
2022-08-17T03:41:55.534Z,95.88
2022-08-17T03:42:54.670Z,95.98
2022-08-17T03:43:54.837Z,95.98
2022-08-17T03:44:54.969Z,95.78
2022-08-17T03:45:55.091Z,95.78
2022-08-17T03:46:55.179Z,95.53
2022-08-17T03:47:55.318Z,95.33
2022-08-17T03:48:55.437Z,94.83
2022-08-17T03:49:55.568Z,94.63
2022-08-17T03:50:55.712Z,94.53
2022-08-17T03:51:55.874Z,94.43
2022-08-17T03:52:55.998Z,94.53
2022-08-17T03:53:56.192Z,94.53
2022-08-17T03:54:56.250Z,94.63
2022-08-17T03:55:56.394Z,94.63
2022-08-17T03:56:56.519Z,94.73
2022-08-17T03:57:56.672Z,94.63
2022-08-17T03:58:56.760Z,94.53
2022-08-17T03:59:56.918Z,94.38
2022-08-17T04:00:57.103Z,94.08
2022-08-17T04:01:57.200Z,93.98
2022-08-17T04:02:57.379Z,93.98
2022-08-17T04:03:57.447Z,93.68
2022-08-17T04:04:57.588Z,93.38
2022-08-17T04:05:57.756Z,93.13
2022-08-17T04:06:57.902Z,93.03
2022-08-17T04:07:58.104Z,92.93
2022-08-17T04:08:58.147Z,92.73
2022-08-17T04:09:58.420Z,92.83
2022-08-17T04:10:58.477Z,92.83
2022-08-17T04:12:01.324Z,92.43
2022-08-17T04:12:59.749Z,92.13
2022-08-17T04:13:58.909Z,92.23
2022-08-17T04:14:59.002Z,92.23
2022-08-17T04:15:59.130Z,92.03
2022-08-17T04:16:59.283Z,92.03
2022-08-17T04:17:59.400Z,92.13
2022-08-17T04:18:59.508Z,92.23
2022-08-17T04:19:59.630Z,92.13
2022-08-17T04:20:59.802Z,92.13
2022-08-17T04:21:59.929Z,92.43
2022-08-17T04:23:00.046Z,92.63
2022-08-17T04:24:00.212Z,92.77
2022-08-17T04:25:00.295Z,92.77
2022-08-17T04:26:00.430Z,92.88
2022-08-17T04:27:00.574Z,92.77
2022-08-17T04:28:00.667Z,92.68
2022-08-17T04:29:00.820Z,92.68
2022-08-17T04:30:00.957Z,92.77
2022-08-17T04:31:01.102Z,92.68
2022-08-17T04:32:01.220Z,92.68
2022-08-17T04:33:06.283Z,92.57
2022-08-17T04:34:02.438Z,92.43
2022-08-17T04:35:01.571Z,92.23
2022-08-17T04:36:01.722Z,92.23
2022-08-17T04:37:01.819Z,91.83
2022-08-17T04:38:01.973Z,91.52
2022-08-17T04:39:02.071Z,91.42
2022-08-17T04:40:04.373Z,91.22
2022-08-17T04:41:02.319Z,90.88
2022-08-17T04:42:02.471Z,90.78
2022-08-17T04:43:02.639Z,90.37
2022-08-17T04:44:02.753Z,90.08
2022-08-17T04:45:02.841Z,89.98
2022-08-17T04:46:02.987Z,89.87
2022-08-17T04:47:03.091Z,89.67
2022-08-17T04:48:03.239Z,89.58
2022-08-17T04:49:03.362Z,89.37
2022-08-17T04:50:03.469Z,89.33
2022-08-17T04:51:03.589Z,89.33
2022-08-17T04:52:04.673Z,89.37
2022-08-17T04:53:03.839Z,89.37
2022-08-17T04:54:03.969Z,89.37
2022-08-17T04:55:04.050Z,89.47
2022-08-17T04:56:04.216Z,89.37
2022-08-17T04:57:04.308Z,89.47
2022-08-17T04:58:04.621Z,89.37
2022-08-17T04:59:06.023Z,89.23
2022-08-17T05:00:04.780Z,89.23
2022-08-17T05:01:04.810Z,89.23
2022-08-17T05:02:04.935Z,89.13
2022-08-17T05:03:05.030Z,89.03
2022-08-17T05:04:33.537Z,88.93
2022-08-17T05:06:19.584Z,88.93
2022-08-17T05:07:23.462Z,88.73
2022-08-17T05:08:20.823Z,88.53
2022-08-17T05:09:19.930Z,88.53
2022-08-17T05:10:20.031Z,88.53
2022-08-17T05:11:20.151Z,88.53
2022-08-17T05:12:20.302Z,88.32
2022-08-17T05:13:20.407Z,88.12
2022-08-17T05:14:20.564Z,88.12
2022-08-17T05:15:21.387Z,87.88
2022-08-17T05:16:20.773Z,87.78
2022-08-17T05:17:20.914Z,87.78
2022-08-17T05:18:21.004Z,87.48
2022-08-17T05:19:21.144Z,87.48
2022-08-17T05:20:21.236Z,87.28
2022-08-17T05:21:21.364Z,87.28
2022-08-17T05:22:21.471Z,87.08
2022-08-17T05:23:21.571Z,86.98
2022-08-17T05:24:41.240Z,86.84
2022-08-17T05:25:25.621Z,86.64
2022-08-17T05:26:26.056Z,86.54
2022-08-17T05:27:23.499Z,86.33
2022-08-17T05:28:24.112Z,86.54
2022-08-17T05:29:23.337Z,86.44
2022-08-17T05:30:23.423Z,86.04
2022-08-17T05:31:22.553Z,85.99
2022-08-17T05:32:38.185Z,85.80
2022-08-17T05:33:23.842Z,85.89
2022-08-17T05:34:22.992Z,85.69
2022-08-17T05:35:23.092Z,85.49
2022-08-17T05:36:42.079Z,85.39
2022-08-17T05:37:24.326Z,85.30
2022-08-17T05:38:23.460Z,85.10
2022-08-17T05:39:23.617Z,84.95
2022-08-17T05:40:23.803Z,84.85
2022-08-17T05:41:23.835Z,84.75
2022-08-17T05:42:24.673Z,84.35
2022-08-17T05:43:24.730Z,84.05
2022-08-17T05:44:24.794Z,84.05
2022-08-17T05:45:54.937Z,83.75
2022-08-17T05:46:25.854Z,83.55
2022-08-17T05:47:24.601Z,83.11
2022-08-17T05:48:39.160Z,83.21
2022-08-17T05:49:25.970Z,83.11
2022-08-17T05:50:27.219Z,82.71
2022-08-17T05:51:26.110Z,82.51
2022-08-17T05:52:25.173Z,82.61
2022-08-17T05:53:25.270Z,82.37
2022-08-17T05:54:25.375Z,82.07
2022-08-17T05:55:25.523Z,82.07
2022-08-17T05:56:30.089Z,81.77
2022-08-17T05:57:26.742Z,81.67
2022-08-17T05:58:25.832Z,81.37
2022-08-17T05:59:25.963Z,81.57
2022-08-17T06:00:30.295Z,81.37
2022-08-17T06:01:26.254Z,81.07
2022-08-17T06:02:26.336Z,80.87
2022-08-17T06:03:26.454Z,80.93
2022-08-17T06:04:26.582Z,80.93
2022-08-17T06:05:26.737Z,81.13
2022-08-17T06:06:31.320Z,81.03
2022-08-17T06:07:26.965Z,80.73
2022-08-17T06:08:27.083Z,80.63
2022-08-17T06:09:33.029Z,80.43
2022-08-17T06:10:28.460Z,80.23
2022-08-17T06:11:27.446Z,80.19
2022-08-17T06:12:27.576Z,80.19
2022-08-17T06:13:27.692Z,80.09
2022-08-17T06:14:27.825Z,79.79
2022-08-17T06:15:27.966Z,79.99
2022-08-17T06:16:34.455Z,79.55
2022-08-17T06:17:29.173Z,79.05
2022-08-17T06:18:28.299Z,78.96
2022-08-17T06:19:28.401Z,78.92
2022-08-17T06:20:28.574Z,78.72
2022-08-17T06:21:30.384Z,78.72
2022-08-17T06:22:28.806Z,78.31
2022-08-17T06:23:28.895Z,78.12
2022-08-17T06:24:29.014Z,78.22
2022-08-17T06:25:29.126Z,78.08
2022-08-17T06:26:38.349Z,77.78
2022-08-17T06:27:30.406Z,77.78
2022-08-17T06:28:29.454Z,77.58
2022-08-17T06:29:29.574Z,77.25
2022-08-17T06:30:57.361Z,77.44
2022-08-17T06:31:30.839Z,76.75
2022-08-17T06:32:29.926Z,76.45
2022-08-17T06:33:30.094Z,76.41
2022-08-17T06:34:30.136Z,76.51
2022-08-17T06:35:31.998Z,75.81
2022-08-17T06:36:30.470Z,75.91
2022-08-17T06:37:30.536Z,76.01
2022-08-17T06:38:38.525Z,75.61
2022-08-17T06:39:31.820Z,75.21
2022-08-17T06:40:30.923Z,75.18
2022-08-17T06:41:31.055Z,74.88
2022-08-17T06:42:59.994Z,74.77
2022-08-17T06:43:32.257Z,74.77
2022-08-17T06:44:43.615Z,74.34
2022-08-17T06:45:32.511Z,74.24
2022-08-17T06:46:31.657Z,73.94
2022-08-17T06:47:31.762Z,73.55
2022-08-17T06:48:31.866Z,73.74
2022-08-17T06:49:31.978Z,73.55
2022-08-17T06:50:32.069Z,73.65
2022-08-17T06:51:32.237Z,73.44
2022-08-17T06:52:45.630Z,73.51
2022-08-17T06:53:33.464Z,73.21
2022-08-17T06:54:32.566Z,72.98
2022-08-17T06:55:37.709Z,72.78
2022-08-17T06:56:54.105Z,72.48
2022-08-17T06:57:33.960Z,72.14
2022-08-17T06:58:33.068Z,71.91
2022-08-17T06:59:54.828Z,71.01
2022-08-17T07:00:34.330Z,70.62
2022-08-17T07:01:33.464Z,70.59
2022-08-17T07:02:51.304Z,70.39
2022-08-17T07:03:34.624Z,69.99
2022-08-17T07:04:33.758Z,69.46
2022-08-17T07:05:33.878Z,69.26
2022-08-17T07:06:33.985Z,69.16
2022-08-17T07:07:34.146Z,68.73
2022-08-17T07:08:35.329Z,68.33
2022-08-17T07:09:34.378Z,67.94
2022-08-17T07:10:34.486Z,67.83
2022-08-17T07:11:34.617Z,67.83
2022-08-17T07:12:34.738Z,67.34
2022-08-17T07:13:34.847Z,67.41
2022-08-17T07:14:34.985Z,67.21
2022-08-17T07:15:35.099Z,66.81
2022-08-17T07:16:35.200Z,67.01
2022-08-17T07:17:46.731Z,66.61
2022-08-17T07:18:36.479Z,66.28
2022-08-17T07:19:35.537Z,66.18
2022-08-17T07:20:35.680Z,65.89
2022-08-17T07:21:35.767Z,66.38
2022-08-17T07:22:53.512Z,65.78
2022-08-17T07:23:37.019Z,65.89
2022-08-17T07:24:38.101Z,65.78
2022-08-17T07:25:36.300Z,65.56
2022-08-17T07:26:36.367Z,65.36
2022-08-17T07:27:36.519Z,65.36
2022-08-17T07:28:36.660Z,65.26
2022-08-17T07:29:36.779Z,65.36
2022-08-17T07:30:37.127Z,64.86
2022-08-17T07:31:37.976Z,65.16
2022-08-17T07:32:37.099Z,64.86
2022-08-17T07:33:37.235Z,65.46
2022-08-17T07:34:37.369Z,64.93
2022-08-17T07:35:40.828Z,64.83
2022-08-17T07:36:38.640Z,65.03
2022-08-17T07:37:37.779Z,65.03
2022-08-17T07:38:37.912Z,65.03
2022-08-17T07:40:15.147Z,64.43
2022-08-17T07:40:39.133Z,64.70
2022-08-17T07:41:53.487Z,65.00
2022-08-17T07:42:44.515Z,64.40
2022-08-17T07:43:39.531Z,63.81
2022-08-17T07:44:38.609Z,64.31
2022-08-17T07:45:38.760Z,64.50
2022-08-17T07:46:38.880Z,63.68
2022-08-17T07:47:39.010Z,63.78
2022-08-17T07:48:39.077Z,64.01
2022-08-17T07:49:39.220Z,63.31
2022-08-17T07:50:39.379Z,63.71
2022-08-17T07:51:39.475Z,63.91
2022-08-17T07:52:50.573Z,63.39
2022-08-17T07:53:40.742Z,63.18
2022-08-17T07:54:39.862Z,63.58
2022-08-17T07:55:40.071Z,63.18
2022-08-17T07:56:40.110Z,63.39
2022-08-17T07:57:40.254Z,63.28
2022-08-17T07:58:40.391Z,62.99
2022-08-17T07:59:40.697Z,62.79
2022-08-17T08:00:40.670Z,62.79
2022-08-17T08:01:42.021Z,62.49
2022-08-17T08:02:40.931Z,62.59
2022-08-17T08:03:41.071Z,62.49
2022-08-17T08:05:49.879Z,62.10
2022-08-17T08:06:42.420Z,61.99
2022-08-17T08:07:41.558Z,61.90
2022-08-17T08:08:41.712Z,61.47
2022-08-17T08:09:41.825Z,61.77
2022-08-17T08:10:45.048Z,61.57
2022-08-17T08:11:44.370Z,61.57
2022-08-17T08:12:42.160Z,62.07
2022-08-17T08:13:42.362Z,61.27
2022-08-17T08:14:42.406Z,61.87
2022-08-17T08:15:45.214Z,63.06
2022-08-17T08:16:43.653Z,62.59
2022-08-17T08:17:42.869Z,63.09
2022-08-17T08:18:55.794Z,63.02
2022-08-17T08:19:44.052Z,63.12
2022-08-17T08:20:51.745Z,63.42
2022-08-17T08:21:44.307Z,63.51
2022-08-17T08:22:43.440Z,63.39
2022-08-17T08:23:43.616Z,64.07
2022-08-17T08:24:43.695Z,62.49
2022-08-17T08:25:43.849Z,62.99
2022-08-17T08:26:43.945Z,62.79
2022-08-17T08:27:44.093Z,62.56
2022-08-17T08:28:44.214Z,62.56
2022-08-17T08:29:44.322Z,61.74
2022-08-17T08:30:44.433Z,61.05
2022-08-17T08:31:44.566Z,61.24
2022-08-17T08:32:44.715Z,61.11
2022-08-17T08:33:44.855Z,60.85
2022-08-17T08:35:01.062Z,61.41
2022-08-17T08:35:46.074Z,60.92
2022-08-17T08:37:12.583Z,60.22
2022-08-17T08:37:46.300Z,59.41
2022-08-17T08:38:45.381Z,57.46
2022-08-17T08:39:45.638Z,58.34
2022-08-17T08:40:45.663Z,57.95
2022-08-17T08:41:45.821Z,57.95
2022-08-17T08:42:45.950Z,57.95
2022-08-17T08:43:50.810Z,56.93
2022-08-17T08:45:00.207Z,57.23
2022-08-17T08:45:47.288Z,56.71
2022-08-17T08:46:46.391Z,56.31
2022-08-17T08:47:46.622Z,56.81
2022-08-17T08:48:56.816Z,56.21
2022-08-17T08:50:04.653Z,56.54
2022-08-17T08:50:49.835Z,56.71
2022-08-17T08:51:47.035Z,56.31
2022-08-17T08:52:47.136Z,55.89
2022-08-17T08:53:47.286Z,55.69
2022-08-17T08:54:47.415Z,55.77
2022-08-17T08:55:47.580Z,54.88
2022-08-17T08:57:11.929Z,54.46
2022-08-17T08:57:48.910Z,54.33
2022-08-17T08:58:47.907Z,53.78
2022-08-17T08:59:51.151Z,53.86
2022-08-17T09:00:49.174Z,53.36
2022-08-17T09:01:48.363Z,53.19
2022-08-17T09:02:48.442Z,52.70
2022-08-17T09:03:53.497Z,53.12
2022-08-17T09:05:13.007Z,53.88
2022-08-17T09:05:49.874Z,53.09
2022-08-17T09:06:48.937Z,53.30
2022-08-17T09:07:49.152Z,53.86
2022-08-17T09:08:49.193Z,54.22
2022-08-17T09:09:49.389Z,52.78
2022-08-17T09:10:49.479Z,53.30
2022-08-17T09:12:01.901Z,52.90
2022-08-17T09:12:50.709Z,53.69
2022-08-17T09:13:54.383Z,53.69
2022-08-17T09:14:50.950Z,53.30
2022-08-17T09:15:50.100Z,52.80
2022-08-17T09:16:50.201Z,52.70
2022-08-17T09:18:03.519Z,53.00
2022-08-17T09:19:00.794Z,53.32
2022-08-17T09:19:51.635Z,53.25
2022-08-17T09:20:50.838Z,53.64
2022-08-17T09:21:50.818Z,53.61
2022-08-17T09:22:50.973Z,53.22
2022-08-17T09:23:51.120Z,53.61
2022-08-17T09:24:51.229Z,53.78
2022-08-17T09:25:51.386Z,52.80
2022-08-17T09:26:51.500Z,52.61
2022-08-17T09:27:51.862Z,52.68
2022-08-17T09:28:51.710Z,52.78
2022-08-17T09:29:51.895Z,52.80
2022-08-17T09:30:51.995Z,53.71
2022-08-17T09:31:52.114Z,54.30
2022-08-17T09:32:52.246Z,54.70
2022-08-17T09:33:52.388Z,54.43
2022-08-17T09:34:52.532Z,55.62
2022-08-17T09:35:52.694Z,54.21
2022-08-17T09:36:52.792Z,55.79
2022-08-17T09:37:52.906Z,54.30
2022-08-17T09:38:52.999Z,54.70
2022-08-17T09:39:53.182Z,53.91
2022-08-17T09:40:53.262Z,53.52
2022-08-17T09:41:53.397Z,53.05
2022-08-17T09:42:53.472Z,54.46
2022-08-17T09:43:53.613Z,54.75
2022-08-17T09:44:53.709Z,54.75
2022-08-17T09:45:53.874Z,54.46
2022-08-17T09:46:54.001Z,53.74
2022-08-17T09:47:54.196Z,54.70
2022-08-17T09:48:54.259Z,54.30
2022-08-17T09:49:54.401Z,54.13
2022-08-17T09:51:03.708Z,54.40
2022-08-17T09:51:55.713Z,54.21
2022-08-17T09:52:54.802Z,54.03
2022-08-17T09:53:54.954Z,53.94
2022-08-17T09:54:55.060Z,53.64
2022-08-17T09:55:55.169Z,54.11
2022-08-17T09:57:11.762Z,53.52
2022-08-17T09:57:56.423Z,53.02
2022-08-17T09:58:55.489Z,54.50
2022-08-17T09:59:55.628Z,52.83
2022-08-17T10:00:55.814Z,53.61
2022-08-17T10:01:55.922Z,54.18
2022-08-17T10:02:56.042Z,52.40
2022-08-17T10:03:56.202Z,52.50
2022-08-17T10:04:56.295Z,52.11
2022-08-17T10:05:57.102Z,51.99
2022-08-17T10:06:56.555Z,52.28
2022-08-17T10:07:56.731Z,51.50
2022-08-17T10:08:57.222Z,53.59
2022-08-17T10:09:56.926Z,53.00
2022-08-17T10:10:57.125Z,54.21
2022-08-17T10:11:57.614Z,55.29
2022-08-17T10:12:57.355Z,54.50
2022-08-17T10:13:59.642Z,54.01
2022-08-17T10:14:57.616Z,54.11
2022-08-17T10:15:58.736Z,55.29
2022-08-17T10:16:57.915Z,54.30
2022-08-17T10:17:58.462Z,54.80
2022-08-17T10:18:58.114Z,53.84
2022-08-17T10:19:58.232Z,55.12
2022-08-17T10:20:58.384Z,55.39
2022-08-17T10:22:01.380Z,54.93
2022-08-17T10:22:59.596Z,54.63
2022-08-17T10:23:58.747Z,54.72
2022-08-17T10:25:21.002Z,54.90
2022-08-17T10:26:00.069Z,53.81
2022-08-17T10:26:59.087Z,55.32
2022-08-17T10:27:59.228Z,54.03
2022-08-17T10:28:59.313Z,53.94
2022-08-17T10:29:59.461Z,54.43
2022-08-17T10:31:23.419Z,55.12
2022-08-17T10:32:00.720Z,56.50
2022-08-17T10:32:59.813Z,55.88
2022-08-17T10:34:00.003Z,54.70
2022-08-17T10:35:00.103Z,54.50
2022-08-17T10:36:00.223Z,55.68
2022-08-17T10:37:00.295Z,53.74
2022-08-17T10:38:00.474Z,53.94
2022-08-17T10:39:00.586Z,54.82
2022-08-17T10:40:00.811Z,54.13
2022-08-17T10:41:00.811Z,54.03
2022-08-17T10:42:00.982Z,54.06
2022-08-17T10:43:01.057Z,54.23
2022-08-17T10:44:39.055Z,56.08
2022-08-17T10:45:02.327Z,55.79
2022-08-17T10:46:27.758Z,53.99
2022-08-17T10:47:02.530Z,52.90
2022-08-17T10:48:05.800Z,52.90
2022-08-17T10:49:02.776Z,53.78
2022-08-17T10:50:01.928Z,53.61
2022-08-17T10:51:02.049Z,53.71
2022-08-17T10:52:02.167Z,53.91
2022-08-17T10:53:02.308Z,53.78
2022-08-17T10:54:02.420Z,53.44
2022-08-17T10:55:02.538Z,54.33
2022-08-17T10:56:02.647Z,54.43
2022-08-17T10:57:02.773Z,54.23
2022-08-17T10:58:02.919Z,54.55
2022-08-17T10:59:03.003Z,54.36
2022-08-17T11:00:03.139Z,54.46
2022-08-17T11:01:03.266Z,54.55
2022-08-17T11:02:03.337Z,55.54
2022-08-17T11:03:03.476Z,55.74
2022-08-17T11:04:03.607Z,55.05
2022-08-17T11:05:03.801Z,55.44
2022-08-17T11:06:03.885Z,55.66
2022-08-17T11:07:04.007Z,55.37
2022-08-17T11:08:04.135Z,55.07
2022-08-17T11:09:04.253Z,55.47
2022-08-17T11:10:04.400Z,55.66
2022-08-17T11:11:04.551Z,55.96
2022-08-17T11:12:04.648Z,55.77
2022-08-17T11:13:04.795Z,56.46
2022-08-17T11:14:04.888Z,55.37
2022-08-17T11:15:05.047Z,55.60
2022-08-17T11:16:08.416Z,56.98
2022-08-17T11:17:05.306Z,56.56
2022-08-17T11:18:05.441Z,56.06
2022-08-17T11:19:06.719Z,56.75
2022-08-17T11:20:05.670Z,56.56
2022-08-17T11:21:05.809Z,56.82
2022-08-17T11:22:05.959Z,55.96
2022-08-17T11:23:06.078Z,56.26
2022-08-17T11:24:06.163Z,56.16
2022-08-17T11:25:06.290Z,56.78
2022-08-17T11:26:06.441Z,56.26
2022-08-17T11:27:06.550Z,56.75
2022-08-17T11:28:06.690Z,56.56
2022-08-17T11:29:07.550Z,56.56
2022-08-17T11:30:06.977Z,56.06
2022-08-17T11:31:07.536Z,56.65
2022-08-17T11:32:07.198Z,56.78
2022-08-17T11:33:07.344Z,56.88
2022-08-17T11:34:07.437Z,57.40
2022-08-17T11:35:07.592Z,58.19
2022-08-17T11:36:07.663Z,58.29
2022-08-17T11:37:07.810Z,58.29
2022-08-17T11:38:13.857Z,58.19
2022-08-17T11:39:09.099Z,58.69
2022-08-17T11:40:08.285Z,58.42
2022-08-17T11:41:08.341Z,58.25
2022-08-17T11:42:08.439Z,58.94
2022-08-17T11:43:08.587Z,59.36
2022-08-17T11:44:08.712Z,59.46
2022-08-17T11:45:08.825Z,59.76
2022-08-17T11:46:08.922Z,59.86
2022-08-17T11:47:09.066Z,59.95
2022-08-17T11:48:27.085Z,60.22
2022-08-17T11:49:10.352Z,60.03
2022-08-17T11:50:09.490Z,60.22
2022-08-17T11:51:09.572Z,60.42
2022-08-17T11:52:09.660Z,60.65
2022-08-17T11:53:09.812Z,60.55
2022-08-17T11:55:33.968Z,61.05
2022-08-17T11:56:11.132Z,60.85
2022-08-17T11:57:10.273Z,61.18
2022-08-17T11:58:10.415Z,61.47
2022-08-17T11:59:10.552Z,61.77
2022-08-17T12:00:10.715Z,62.07
2022-08-17T12:01:12.329Z,62.16
2022-08-17T12:02:11.008Z,62.16
2022-08-17T12:03:11.122Z,62.16
2022-08-17T12:04:11.276Z,62.16
2022-08-17T12:05:12.169Z,62.29
2022-08-17T12:06:11.518Z,62.39
2022-08-17T12:07:11.593Z,62.29
2022-08-17T12:08:11.692Z,62.79
2022-08-17T12:09:11.842Z,62.79
2022-08-17T12:10:12.056Z,63.12
2022-08-17T12:11:12.093Z,63.42
2022-08-17T12:12:14.834Z,63.42
2022-08-17T12:13:12.384Z,63.28
2022-08-17T12:14:17.335Z,63.42
2022-08-17T12:15:13.668Z,63.58
2022-08-17T12:16:12.746Z,63.61
2022-08-17T12:17:12.881Z,63.58
2022-08-17T12:18:13.993Z,63.58
2022-08-17T12:19:13.183Z,63.48
2022-08-17T12:20:14.659Z,63.39
2022-08-17T12:21:13.415Z,63.55
2022-08-17T12:22:13.482Z,63.45
2022-08-17T12:23:13.637Z,62.96
2022-08-17T12:24:13.735Z,63.22
2022-08-17T12:25:14.126Z,63.12
2022-08-17T12:26:14.003Z,63.12
2022-08-17T12:27:14.108Z,63.32
2022-08-17T12:28:17.956Z,63.22
2022-08-17T12:29:18.339Z,63.12
2022-08-17T12:30:17.455Z,62.82
2022-08-17T12:31:14.626Z,62.82
2022-08-17T12:32:14.754Z,63.22
2022-08-17T12:33:25.594Z,62.93
2022-08-17T12:34:15.995Z,62.93
2022-08-17T12:35:15.177Z,63.25
2022-08-17T12:36:15.269Z,63.45
2022-08-17T12:37:15.363Z,63.65
2022-08-17T12:38:26.906Z,63.85
2022-08-17T12:39:21.367Z,63.85
2022-08-17T12:40:16.764Z,64.14
2022-08-17T12:41:15.924Z,64.07
2022-08-17T12:42:16.024Z,64.17
2022-08-17T12:43:16.445Z,64.17
2022-08-17T12:44:16.253Z,64.28
2022-08-17T12:45:16.392Z,64.47
2022-08-17T12:46:16.526Z,64.67
2022-08-17T12:47:21.584Z,65.30
2022-08-17T12:48:17.778Z,64.67
2022-08-17T12:49:16.904Z,65.09
2022-08-17T12:50:29.120Z,65.20
2022-08-17T12:51:18.168Z,65.30
2022-08-17T12:52:18.035Z,65.30
2022-08-17T12:53:17.450Z,65.20
2022-08-17T12:54:17.524Z,65.39
2022-08-17T12:55:17.678Z,65.69
2022-08-17T12:56:17.786Z,65.59
2022-08-17T12:57:18.008Z,65.59